Time,TemperatureF,DewpointF,PressureIn,WindDirection,WindDirectionDegrees,WindSpeedMPH,WindSpeedGustMPH,Humidity,HourlyPrecipIn,Conditions,Clouds,dailyrainin,SoftwareType,DateUTC
2013-04-19 00:00:00,62.4,54.8,28.73,ESE,110,0.0,20.8,76,0.00,,BKN025,0.00,VWS V14.01,2013-04-19 05:00:00,
2013-04-19 00:15:00,62.4,54.8,28.73,North,357,8.1,20.8,76,0.00,,OVC024,0.00,VWS V14.01,2013-04-19 05:15:00,
2013-04-19 00:30:00,62.4,54.8,28.73,ENE,74,0.0,20.8,76,0.00,,OVC024,0.00,VWS V14.01,2013-04-19 05:30:00,
2013-04-19 00:45:00,62.4,54.8,28.73,South,170,0.0,24.8,76,0.00,,OVC024,0.00,VWS V14.01,2013-04-19 05:45:00,
2013-04-19 01:00:00,62.4,54.8,28.70,SW,229,0.0,23.5,76,0.00,,OVC024,0.00,VWS V14.01,2013-04-19 06:00:00,
2013-04-19 01:15:00,62.4,54.8,28.70,ESE,120,0.0,19.5,76,0.00,,OVC055,0.00,VWS V14.01,2013-04-19 06:15:00,
2013-04-19 01:30:00,62.4,54.8,28.70,SE,141,0.0,16.8,76,0.00,,OVC055,0.00,VWS V14.01,2013-04-19 06:30:00,
2013-04-19 01:45:00,62.4,54.8,28.70,WSW,240,0.0,26.2,76,0.00,,OVC055,0.00,VWS V14.01,2013-04-19 06:45:00,
2013-04-19 02:00:00,62.4,54.8,28.70,West,279,0.0,15.4,76,0.00,,OVC055,0.00,VWS V14.01,2013-04-19 07:00:00,
2013-04-19 02:15:00,62.4,54.8,28.70,NNW,329,0.0,22.1,76,0.00,,OVC055,0.00,VWS V14.01,2013-04-19 07:15:00,
2013-04-19 02:30:00,62.4,54.8,28.70,North,353,0.0,0.0,76,0.00,,OVC055,0.00,VWS V14.01,2013-04-19 07:30:00,
2013-04-19 02:45:00,62.4,54.8,28.70,WNW,285,0.0,0.0,76,0.00,,OVC055,0.00,VWS V14.01,2013-04-19 07:45:00,
2013-04-19 03:00:00,62.4,54.8,28.70,NNE,13,0.0,0.0,76,0.00,,OVC055,0.00,VWS V14.01,2013-04-19 08:00:00,
2013-04-19 03:15:00,62.4,54.8,28.70,NE,45,0.0,0.0,76,0.00,,FEW055,0.00,VWS V14.01,2013-04-19 08:15:00,
2013-04-19 03:30:00,62.4,54.8,28.70,North,353,0.0,0.0,76,0.00,,FEW055,0.00,VWS V14.01,2013-04-19 08:30:00,
2013-04-19 03:45:00,62.4,54.8,28.70,ENE,76,0.0,0.0,76,0.00,,FEW055,0.00,VWS V14.01,2013-04-19 08:45:00,
2013-04-19 04:00:00,62.4,54.8,28.70,NW,307,0.0,0.0,76,0.00,,FEW055,0.00,VWS V14.01,2013-04-19 09:00:00,
2013-04-19 04:15:00,62.4,54.8,28.70,North,9,0.0,8.1,76,0.00,,FEW055,0.00,VWS V14.01,2013-04-19 09:15:00,
2013-04-19 04:30:00,62.4,54.8,28.70,West,263,0.0,0.0,76,0.00,,FEW055,0.00,VWS V14.01,2013-04-19 09:30:00,
2013-04-19 04:45:00,62.4,54.8,28.70,NNW,336,0.0,0.0,76,0.00,,FEW055,0.00,VWS V14.01,2013-04-19 09:45:00,
2013-04-19 05:00:00,62.4,54.8,28.70,North,357,0.0,0.0,76,0.00,,FEW055,0.00,VWS V14.01,2013-04-19 10:00:00,
2013-04-19 05:15:00,62.4,54.8,28.70,North,357,0.0,0.0,76,0.00,,FEW055,0.00,VWS V14.01,2013-04-19 10:15:00,
2013-04-19 05:30:00,62.4,54.8,28.70,North,353,0.0,0.0,76,0.00,,FEW055,0.00,VWS V14.01,2013-04-19 10:30:00,
2013-04-19 05:45:00,62.4,54.8,28.70,North,357,0.0,0.0,76,0.00,,FEW055,0.00,VWS V14.01,2013-04-19 10:45:00,
2013-04-19 06:00:00,62.4,54.8,28.70,North,357,0.0,0.0,76,0.00,,FEW055,0.00,VWS V14.01,2013-04-19 11:00:00,
2013-04-19 06:15:00,62.4,54.8,28.73,NNW,345,0.0,0.0,76,0.00,,CLR,0.00,VWS V14.01,2013-04-19 11:15:00,
2013-04-19 06:30:00,62.4,54.8,28.73,ENE,70,0.0,0.0,76,0.00,,CLR,0.00,VWS V14.01,2013-04-19 11:30:00,
2013-04-19 06:45:00,62.4,54.8,28.73,West,273,0.0,0.0,76,0.00,,CLR,0.00,VWS V14.01,2013-04-19 11:45:00,
2013-04-19 07:00:00,62.4,54.8,28.73,NNE,15,0.0,0.0,76,0.00,,CLR,0.00,VWS V14.01,2013-04-19 12:00:00,
2013-04-19 07:15:00,62.4,54.8,28.73,NW,325,0.0,0.0,76,0.00,,CLR,0.00,VWS V14.01,2013-04-19 12:15:00,
2013-04-19 07:30:00,62.4,54.8,28.73,NNW,344,0.0,0.0,76,0.00,,CLR,0.00,VWS V14.01,2013-04-19 12:30:00,
2013-04-19 07:45:00,62.4,54.8,28.73,ENE,66,0.0,0.0,76,0.00,,CLR,0.00,VWS V14.01,2013-04-19 12:45:00,
2013-04-19 08:00:00,62.4,54.8,28.73,NW,318,0.0,0.0,76,0.00,,CLR,0.00,VWS V14.01,2013-04-19 13:00:00,
2013-04-19 08:15:00,62.4,54.8,28.73,North,10,0.0,0.0,76,0.00,,CLR,0.00,VWS V14.01,2013-04-19 13:15:00,
2013-04-19 08:30:00,62.4,54.8,28.73,NE,35,0.0,8.1,76,0.00,,CLR,0.00,VWS V14.01,2013-04-19 13:30:00,
2013-04-19 08:45:00,62.4,54.8,28.76,North,11,0.0,9.4,76,0.00,,CLR,0.00,VWS V14.01,2013-04-19 13:45:00,
2013-04-19 09:00:00,62.4,54.8,28.76,NW,317,0.0,8.1,76,0.00,,CLR,0.00,VWS V14.01,2013-04-19 14:00:00,
2013-04-19 09:15:00,62.4,54.8,28.76,WNW,289,0.0,12.1,76,0.00,,BKN250,0.00,VWS V14.01,2013-04-19 14:15:00,
2013-04-19 09:30:00,62.4,54.8,28.76,West,267,0.0,0.0,76,0.00,,BKN250,0.00,VWS V14.01,2013-04-19 14:30:00,
2013-04-19 09:45:00,62.4,54.8,28.76,SSE,166,0.0,8.1,76,0.00,,BKN250,0.00,VWS V14.01,2013-04-19 14:45:00,
2013-04-19 10:00:00,62.4,54.8,28.76,NW,321,0.0,8.1,76,0.00,,BKN250,0.00,VWS V14.01,2013-04-19 15:00:00,
2013-04-19 10:15:00,62.4,54.8,28.76,North,357,0.0,10.7,76,0.00,,BKN250,0.00,VWS V14.01,2013-04-19 15:15:00,
2013-04-19 10:30:00,62.4,54.8,28.76,NNW,338,0.0,0.0,76,0.00,,BKN250,0.00,VWS V14.01,2013-04-19 15:30:00,
2013-04-19 10:45:00,62.4,54.8,28.76,North,357,0.0,13.4,76,0.00,,BKN250,0.00,VWS V14.01,2013-04-19 15:45:00,
2013-04-19 11:00:00,62.4,54.8,28.76,North,353,0.0,13.4,76,0.00,,BKN250,0.00,VWS V14.01,2013-04-19 16:00:00,
2013-04-19 11:15:00,62.4,54.8,28.79,North,357,0.0,20.8,76,0.00,,BKN250,0.00,VWS V14.01,2013-04-19 16:15:00,
2013-04-19 11:30:00,62.4,54.8,28.79,NNE,31,0.0,9.4,76,0.00,,BKN250,0.00,VWS V14.01,2013-04-19 16:30:00,
2013-04-19 11:45:00,62.4,54.8,28.79,NW,306,0.0,14.1,76,0.00,,BKN250,0.00,VWS V14.01,2013-04-19 16:45:00,
2013-04-19 12:00:00,39.2,16.3,28.79,NE,50,0.0,23.5,39,0.00,,BKN250,0.00,VWS V14.01,2013-04-19 17:00:00,
2013-04-19 12:15:00,40.1,17.1,28.79,NNW,340,15.4,23.5,39,0.00,,SCT250,0.00,VWS V14.01,2013-04-19 17:15:00,
2013-04-19 12:30:00,41.0,18.0,28.79,NE,39,0.0,19.5,39,0.00,,SCT250,0.00,VWS V14.01,2013-04-19 17:30:00,
2013-04-19 12:45:00,41.5,16.6,28.79,WNW,283,12.1,23.5,36,0.00,,SCT250,0.00,VWS V14.01,2013-04-19 17:45:00,
2013-04-19 13:00:00,41.9,16.9,28.79,NNE,12,0.0,24.8,36,0.00,,SCT250,0.00,VWS V14.01,2013-04-19 18:00:00,
2013-04-19 13:15:00,42.3,17.2,28.79,North,357,0.0,26.8,36,0.00,,SCT250,0.00,VWS V14.01,2013-04-19 18:15:00,
2013-04-19 13:30:00,42.8,17.7,28.79,WNW,300,0.0,15.4,36,0.00,,SCT250,0.00,VWS V14.01,2013-04-19 18:30:00,
2013-04-19 13:45:00,43.3,17.5,28.79,ESE,108,0.0,29.5,35,0.00,,SCT250,0.00,VWS V14.01,2013-04-19 18:45:00,
2013-04-19 14:00:00,43.7,17.9,28.79,North,357,0.0,19.5,35,0.00,,SCT250,0.00,VWS V14.01,2013-04-19 19:00:00,
2013-04-19 14:15:00,44.4,17.8,28.79,ESE,113,10.7,16.8,34,0.00,,SCT055,0.00,VWS V14.01,2013-04-19 19:15:00,
2013-04-19 14:30:00,44.2,17.0,28.82,SE,129,0.0,10.7,33,0.00,,SCT055,0.00,VWS V14.01,2013-04-19 19:30:00,
2013-04-19 14:45:00,44.4,17.8,28.82,ESE,123,0.0,16.8,34,0.00,,SCT055,0.00,VWS V14.01,2013-04-19 19:45:00,
2013-04-19 15:00:00,44.2,17.0,28.82,NNW,342,0.0,26.2,33,0.00,,SCT055,0.00,VWS V14.01,2013-04-19 20:00:00,
2013-04-19 15:15:00,45.5,19.5,28.82,ESE,103,0.0,20.8,35,0.00,,SCT060,0.00,VWS V14.01,2013-04-19 20:15:00,
2013-04-19 15:30:00,45.5,18.1,28.82,North,5,0.0,19.5,33,0.00,,SCT060,0.00,VWS V14.01,2013-04-19 20:30:00,
2013-04-19 15:45:00,45.0,16.9,28.82,East,81,14.1,22.1,32,0.00,,SCT060,0.00,VWS V14.01,2013-04-19 20:45:00,
2013-04-19 16:00:00,46.2,18.0,28.82,NNE,23,0.0,16.8,32,0.00,,SCT060,0.00,VWS V14.01,2013-04-19 21:00:00,
2013-04-19 16:15:00,45.1,16.3,28.82,East,100,0.0,19.5,31,0.00,,BKN060,0.00,VWS V14.01,2013-04-19 21:15:00,
2013-04-19 16:30:00,45.9,17.7,28.82,East,86,0.0,16.8,32,0.00,,BKN060,0.00,VWS V14.01,2013-04-19 21:30:00,
2013-04-19 16:45:00,46.4,17.4,28.82,SE,128,0.0,28.2,31,0.00,,BKN060,0.00,VWS V14.01,2013-04-19 21:45:00,
2013-04-19 17:00:00,45.5,16.6,28.82,East,79,8.1,28.2,31,0.00,,BKN060,0.00,VWS V14.01,2013-04-19 22:00:00,
2013-04-19 17:15:00,45.3,16.5,28.82,ESE,113,9.4,26.8,31,0.00,,SCT060,0.00,VWS V14.01,2013-04-19 22:15:00,
2013-04-19 17:30:00,45.5,16.6,28.82,ESE,115,12.1,29.5,31,0.00,,SCT060,0.00,VWS V14.01,2013-04-19 22:30:00,
2013-04-19 17:45:00,45.0,16.9,28.85,SW,227,0.0,22.1,32,0.00,,SCT060,0.00,VWS V14.01,2013-04-19 22:45:00,
2013-04-19 18:00:00,45.0,16.2,28.85,East,90,0.0,16.8,31,0.00,,SCT060,0.00,VWS V14.01,2013-04-19 23:00:00,
2013-04-19 18:15:00,44.2,16.3,28.85,East,100,8.1,23.5,32,0.00,,SCT060,0.00,VWS V14.01,2013-04-19 23:15:00,
2013-04-19 18:30:00,44.2,16.3,28.85,SW,234,0.0,19.5,32,0.00,,SCT060,0.00,VWS V14.01,2013-04-19 23:30:00,
2013-04-19 18:45:00,44.2,16.3,28.85,NE,36,8.1,8.1,32,0.00,,SCT060,0.00,VWS V14.01,2013-04-19 23:45:00,
2013-04-19 19:00:00,43.5,16.3,28.85,North,357,0.0,9.4,33,0.00,,SCT060,0.00,VWS V14.01,2013-04-20 00:00:00,
2013-04-19 19:15:00,43.0,15.9,28.85,East,85,0.0,12.1,33,0.00,,SCT055,0.00,VWS V14.01,2013-04-20 00:15:00,
2013-04-19 19:30:00,42.1,15.1,28.85,NNE,28,0.0,8.1,33,0.00,,SCT055,0.00,VWS V14.01,2013-04-20 00:30:00,
2013-04-19 19:45:00,41.4,15.1,28.88,NW,305,0.0,14.1,34,0.00,,SCT055,0.00,VWS V14.01,2013-04-20 00:45:00,
2013-04-19 20:00:00,40.5,14.3,28.88,ENE,60,0.0,12.1,34,0.00,,SCT055,0.00,VWS V14.01,2013-04-20 01:00:00,
2013-04-19 20:15:00,39.7,15.0,28.88,ENE,70,0.0,0.0,36,0.00,,FEW055,0.00,VWS V14.01,2013-04-20 01:15:00,
2013-04-19 20:30:00,38.8,15.4,28.88,ENE,78,0.0,0.0,38,0.00,,FEW055,0.00,VWS V14.01,2013-04-20 01:30:00,
2013-04-19 20:45:00,37.9,15.2,28.91,ENE,58,0.0,0.0,39,0.00,,FEW055,0.00,VWS V14.01,2013-04-20 01:45:00,
2013-04-19 21:00:00,37.2,15.1,28.91,ENE,62,0.0,0.0,40,0.00,,FEW055,0.00,VWS V14.01,2013-04-20 02:00:00,
2013-04-19 21:15:00,36.5,14.5,28.91,NE,50,0.0,0.0,40,0.00,,CLR,0.00,VWS V14.01,2013-04-20 02:15:00,
2013-04-19 21:30:00,35.8,14.4,28.91,NE,53,0.0,0.0,41,0.00,,CLR,0.00,VWS V14.01,2013-04-20 02:30:00,
2013-04-19 21:45:00,35.2,14.5,28.91,NNE,30,0.0,0.0,42,0.00,,CLR,0.00,VWS V14.01,2013-04-20 02:45:00,
2013-04-19 22:00:00,34.5,14.3,28.91,NNE,29,0.0,0.0,43,0.00,,CLR,0.00,VWS V14.01,2013-04-20 03:00:00,
2013-04-19 22:15:00,34.0,13.9,28.94,NNE,18,0.0,0.0,43,0.00,,CLR,0.00,VWS V14.01,2013-04-20 03:15:00,
2013-04-19 22:30:00,33.6,14.6,28.94,NNE,18,0.0,0.0,45,0.00,,CLR,0.00,VWS V14.01,2013-04-20 03:30:00,
2013-04-19 22:45:00,33.1,14.1,28.94,NNE,18,0.0,0.0,45,0.00,,CLR,0.00,VWS V14.01,2013-04-20 03:45:00,
2013-04-19 23:00:00,32.4,13.9,28.94,NNE,18,0.0,0.0,46,0.00,,CLR,0.00,VWS V14.01,2013-04-20 04:00:00,
2013-04-19 23:15:00,32.4,14.9,28.94,NNE,18,0.0,0.0,48,0.00,,CLR,0.00,VWS V14.01,2013-04-20 04:15:00,
2013-04-19 23:30:00,31.5,14.5,28.94,NNE,18,0.0,0.0,49,0.00,,CLR,0.00,VWS V14.01,2013-04-20 04:30:00,
2013-04-19 23:45:00,30.6,14.1,28.94,NNE,18,0.0,0.0,50,0.00,,CLR,0.00,VWS V14.01,2013-04-20 04:45:00,